createdAt,value
2018-12-31T00:00:38.415Z,4.77
2018-12-31T00:03:08.092Z,24.47
2018-12-31T00:05:37.801Z,11.03
2018-12-31T00:08:07.546Z,8.70
2018-12-31T00:10:37.166Z,4.40
2018-12-31T00:13:06.832Z,6.87
2018-12-31T00:15:36.497Z,12.20
2018-12-31T00:18:06.172Z,8.00
2018-12-31T00:20:36.401Z,8.73
2018-12-31T00:23:06.135Z,14.87
2018-12-31T00:25:35.796Z,8.33
2018-12-31T00:28:05.546Z,12.00
2018-12-31T00:30:35.195Z,9.50
2018-12-31T00:33:04.807Z,10.10
2018-12-31T00:35:34.470Z,11.67
2018-12-31T00:38:04.147Z,8.63
2018-12-31T00:40:33.872Z,7.80
2018-12-31T00:43:03.493Z,11.87
2018-12-31T00:45:33.133Z,8.93
2018-12-31T00:48:02.746Z,7.63
2018-12-31T00:50:32.412Z,12.40
2018-12-31T00:53:02.058Z,10.20
2018-12-31T00:55:31.719Z,23.73
2018-12-31T00:58:01.355Z,12.17
2018-12-31T01:00:31.025Z,7.17
2018-12-31T01:03:00.689Z,8.30
2018-12-31T01:05:30.511Z,9.53
2018-12-31T01:08:00.256Z,10.57
2018-12-31T01:10:30.292Z,13.70
2018-12-31T01:12:59.989Z,7.17
2018-12-31T01:15:29.676Z,9.23
2018-12-31T01:17:59.295Z,9.93
2018-12-31T01:20:28.937Z,8.13
2018-12-31T01:22:58.566Z,10.83
2018-12-31T01:25:28.198Z,12.50
2018-12-31T01:27:57.929Z,11.90
2018-12-31T01:30:27.756Z,16.70
2018-12-31T01:32:57.775Z,16.20
2018-12-31T01:35:27.790Z,9.00
2018-12-31T01:37:57.487Z,9.37
2018-12-31T01:40:27.320Z,14.07
2018-12-31T01:42:57.152Z,13.13
2018-12-31T01:45:26.795Z,11.70
2018-12-31T01:47:56.699Z,13.50
2018-12-31T01:50:26.416Z,13.33
2018-12-31T01:52:56.124Z,13.13
2018-12-31T01:55:25.788Z,15.90
2018-12-31T01:57:55.497Z,8.60
2018-12-31T02:00:25.208Z,12.97
2018-12-31T02:02:55.144Z,13.97
2018-12-31T02:05:24.781Z,14.27
2018-12-31T02:07:54.498Z,14.00
2018-12-31T02:10:24.171Z,17.67
2018-12-31T02:12:53.907Z,13.30
2018-12-31T02:15:23.686Z,13.97
2018-12-31T02:17:53.424Z,10.60
2018-12-31T02:20:23.199Z,20.97
2018-12-31T02:22:52.945Z,18.03
2018-12-31T02:25:22.567Z,10.80
2018-12-31T02:27:52.205Z,19.57
2018-12-31T02:30:22.051Z,12.60
2018-12-31T02:32:51.678Z,20.03
2018-12-31T02:35:21.415Z,14.27
2018-12-31T02:37:51.093Z,10.90
2018-12-31T02:40:20.695Z,13.83
2018-12-31T02:42:50.349Z,16.97
2018-12-31T02:45:20.239Z,13.70
2018-12-31T02:47:50.061Z,15.60
2018-12-31T02:50:19.833Z,15.77
2018-12-31T02:52:49.458Z,11.50
2018-12-31T02:55:19.089Z,12.03
2018-12-31T02:57:48.822Z,10.37
2018-12-31T03:00:19.102Z,14.93
2018-12-31T03:02:48.734Z,14.27
2018-12-31T03:05:18.363Z,11.00
2018-12-31T03:07:48.002Z,11.30
2018-12-31T03:10:17.672Z,10.60
2018-12-31T03:12:47.284Z,14.87
2018-12-31T03:15:16.984Z,12.50
2018-12-31T03:17:46.634Z,13.17
2018-12-31T03:20:16.255Z,15.57
2018-12-31T03:22:45.915Z,15.87
2018-12-31T03:25:15.534Z,13.43
2018-12-31T03:27:45.166Z,15.63
2018-12-31T03:30:14.962Z,11.37
2018-12-31T03:32:44.599Z,10.97
2018-12-31T03:35:14.390Z,16.60
2018-12-31T03:37:44.089Z,12.47
2018-12-31T03:40:13.774Z,10.73
2018-12-31T03:42:43.496Z,14.20
2018-12-31T03:45:13.123Z,15.10
2018-12-31T03:47:42.841Z,11.60
2018-12-31T03:50:12.586Z,11.93
2018-12-31T03:52:42.271Z,13.97
2018-12-31T03:55:11.900Z,14.07
2018-12-31T03:57:41.572Z,14.80
2018-12-31T04:00:11.289Z,26.40
2018-12-31T04:02:41.026Z,12.97
2018-12-31T04:05:10.775Z,14.90
2018-12-31T04:07:40.410Z,12.70
2018-12-31T04:10:10.106Z,11.37
2018-12-31T04:12:39.846Z,14.30
2018-12-31T04:15:09.588Z,15.83
2018-12-31T04:17:39.238Z,12.70
2018-12-31T04:20:09.027Z,12.33
2018-12-31T04:22:38.696Z,11.67
2018-12-31T04:25:08.330Z,12.03
2018-12-31T04:27:38.018Z,13.37
2018-12-31T04:30:07.750Z,12.57
2018-12-31T04:32:37.400Z,14.80
2018-12-31T04:35:07.139Z,13.13
2018-12-31T04:37:36.795Z,17.30
2018-12-31T04:40:06.485Z,12.10
2018-12-31T04:42:36.192Z,14.77
2018-12-31T04:45:06.194Z,16.17
2018-12-31T04:47:35.835Z,13.83
2018-12-31T04:50:06.031Z,11.17
2018-12-31T04:52:35.804Z,12.13
2018-12-31T04:55:05.702Z,14.33
2018-12-31T04:57:35.523Z,13.93
2018-12-31T05:00:05.836Z,10.53
2018-12-31T05:02:35.577Z,10.43
2018-12-31T05:05:05.554Z,12.03
2018-12-31T05:07:35.229Z,12.53
2018-12-31T05:10:05.142Z,13.03
2018-12-31T05:12:34.792Z,12.53
2018-12-31T05:15:04.557Z,14.60
2018-12-31T05:17:34.229Z,9.83
2018-12-31T05:20:03.914Z,13.57
2018-12-31T05:22:33.584Z,12.07
2018-12-31T05:25:03.311Z,13.87
2018-12-31T05:27:40.329Z,13.17
2018-12-31T05:30:10.066Z,15.03
2018-12-31T05:32:39.743Z,15.53
2018-12-31T05:35:09.362Z,17.63
2018-12-31T05:37:39.038Z,16.17
2018-12-31T05:40:08.710Z,16.07
2018-12-31T05:42:38.343Z,17.27
2018-12-31T05:45:08.083Z,11.47
2018-12-31T05:47:37.709Z,14.53
2018-12-31T05:50:07.425Z,15.30
2018-12-31T05:52:42.534Z,11.57
2018-12-31T05:55:12.179Z,12.47
2018-12-31T05:57:41.843Z,11.33
2018-12-31T06:00:11.475Z,15.30
2018-12-31T06:02:41.115Z,11.87
2018-12-31T06:05:10.790Z,10.87
2018-12-31T06:07:40.507Z,14.57
2018-12-31T06:10:10.159Z,11.73
2018-12-31T06:12:39.822Z,12.80
2018-12-31T06:15:09.545Z,14.57
2018-12-31T06:17:39.201Z,13.43
2018-12-31T06:20:08.889Z,12.07
2018-12-31T06:22:38.559Z,11.83
2018-12-31T06:25:08.203Z,20.17
2018-12-31T06:27:37.851Z,9.57
2018-12-31T06:30:07.596Z,12.77
2018-12-31T06:32:37.233Z,11.03
2018-12-31T06:35:06.878Z,11.27
2018-12-31T06:37:36.550Z,14.00
2018-12-31T06:40:06.364Z,13.50
2018-12-31T06:42:38.860Z,11.17
2018-12-31T06:45:08.586Z,12.13
2018-12-31T06:47:38.194Z,9.93
2018-12-31T06:50:07.936Z,9.80
2018-12-31T06:52:37.623Z,9.47
2018-12-31T06:55:07.388Z,13.40
2018-12-31T06:57:37.008Z,13.47
2018-12-31T07:00:06.858Z,11.87
2018-12-31T07:02:36.515Z,14.87
2018-12-31T07:05:06.380Z,12.67
2018-12-31T07:07:36.022Z,14.83
2018-12-31T07:10:06.426Z,12.67
2018-12-31T07:12:36.060Z,10.27
2018-12-31T07:15:06.383Z,14.13
2018-12-31T07:17:36.095Z,12.60
2018-12-31T07:20:06.883Z,19.03
2018-12-31T07:22:36.518Z,14.13
2018-12-31T07:25:06.433Z,14.57
2018-12-31T07:27:36.067Z,18.47
2018-12-31T07:30:06.103Z,20.07
2018-12-31T07:32:35.761Z,25.00
2018-12-31T07:35:05.512Z,16.40
2018-12-31T07:37:35.135Z,18.83
2018-12-31T07:40:04.989Z,24.63
2018-12-31T07:42:34.721Z,22.47
2018-12-31T07:45:04.464Z,19.67
2018-12-31T07:47:34.182Z,20.73
2018-12-31T07:50:03.997Z,20.57
2018-12-31T07:52:33.743Z,22.67
2018-12-31T07:55:03.367Z,24.53
2018-12-31T07:57:33.040Z,24.77
2018-12-31T08:00:02.780Z,22.43
2018-12-31T08:02:32.474Z,23.23
2018-12-31T08:05:02.130Z,24.43
2018-12-31T08:07:31.823Z,29.77
2018-12-31T08:10:02.337Z,35.83
2018-12-31T08:12:32.078Z,27.80
2018-12-31T08:15:01.979Z,28.63
2018-12-31T08:17:31.626Z,24.50
2018-12-31T08:20:01.263Z,29.10
2018-12-31T08:22:31.008Z,26.97
2018-12-31T08:25:00.769Z,30.00
2018-12-31T08:27:30.430Z,33.80
2018-12-31T08:30:00.267Z,23.90
2018-12-31T08:32:30.123Z,27.43
2018-12-31T08:34:59.787Z,30.63
2018-12-31T08:37:29.505Z,28.37
2018-12-31T08:39:59.136Z,24.23
2018-12-31T08:42:28.788Z,32.50
2018-12-31T08:44:58.442Z,22.93
2018-12-31T08:47:28.082Z,24.33
2018-12-31T08:49:57.761Z,28.70
2018-12-31T08:52:27.390Z,23.17
2018-12-31T08:54:57.036Z,19.13
2018-12-31T08:57:26.668Z,23.60
2018-12-31T08:59:56.331Z,20.50
2018-12-31T09:02:25.977Z,20.20
2018-12-31T09:05:01.473Z,21.00
2018-12-31T09:07:31.136Z,21.57
2018-12-31T09:10:00.759Z,25.90
2018-12-31T09:12:30.399Z,18.30
2018-12-31T09:15:00.163Z,21.43
2018-12-31T09:17:37.297Z,19.97
2018-12-31T09:20:08.347Z,19.97
2018-12-31T09:22:38.058Z,18.53
2018-12-31T09:25:07.943Z,19.37
2018-12-31T09:27:37.719Z,19.50
2018-12-31T09:30:07.478Z,20.60
2018-12-31T09:32:37.189Z,17.87
2018-12-31T09:35:07.003Z,15.73
2018-12-31T09:37:36.679Z,11.53
2018-12-31T09:40:06.424Z,17.33
2018-12-31T09:42:36.078Z,13.17
2018-12-31T09:45:05.885Z,16.03
2018-12-31T09:47:35.545Z,10.57
2018-12-31T09:50:05.349Z,13.10
2018-12-31T09:52:35.015Z,9.73
2018-12-31T09:55:05.787Z,12.63
2018-12-31T09:57:35.418Z,11.03
2018-12-31T10:00:06.060Z,8.20
2018-12-31T10:02:35.766Z,10.60
2018-12-31T10:05:05.715Z,7.90
2018-12-31T10:07:35.468Z,10.30
2018-12-31T10:10:05.444Z,8.17
2018-12-31T10:12:35.083Z,8.53
2018-12-31T10:15:05.230Z,9.13
2018-12-31T10:17:34.860Z,6.23
2018-12-31T10:20:05.032Z,8.13
2018-12-31T10:22:34.671Z,8.03
2018-12-31T10:25:04.426Z,8.03
2018-12-31T10:27:34.085Z,8.33
2018-12-31T10:30:03.792Z,8.83
2018-12-31T10:32:33.451Z,7.83
2018-12-31T10:35:03.118Z,7.13
2018-12-31T10:37:32.778Z,6.20
2018-12-31T10:40:02.418Z,11.50
2018-12-31T10:42:32.041Z,6.37
2018-12-31T10:45:01.712Z,10.40
2018-12-31T10:47:31.334Z,5.20
2018-12-31T10:50:00.985Z,3.53
2018-12-31T10:52:30.685Z,7.07
2018-12-31T10:55:00.369Z,4.93
2018-12-31T10:57:30.001Z,4.80
2018-12-31T10:59:59.630Z,4.37
2018-12-31T11:02:29.276Z,4.10
2018-12-31T11:04:58.919Z,3.93
2018-12-31T11:07:28.561Z,2.67
2018-12-31T11:09:58.209Z,4.33
2018-12-31T11:12:27.861Z,4.77
2018-12-31T11:14:57.512Z,5.47
2018-12-31T11:17:27.160Z,4.67
2018-12-31T11:19:56.809Z,4.93
2018-12-31T11:22:26.452Z,4.50
2018-12-31T11:24:56.192Z,4.67
2018-12-31T11:27:25.822Z,6.17
2018-12-31T11:29:55.547Z,6.77
2018-12-31T11:32:25.225Z,4.77
2018-12-31T11:34:54.894Z,4.67
2018-12-31T11:37:24.555Z,6.73
2018-12-31T11:39:54.207Z,5.10
2018-12-31T11:42:23.966Z,5.33
2018-12-31T11:44:53.593Z,5.50
2018-12-31T11:47:23.256Z,4.80
2018-12-31T11:49:52.941Z,6.13
2018-12-31T11:52:22.576Z,5.90
2018-12-31T11:54:52.334Z,5.73
2018-12-31T11:57:22.054Z,4.90
2018-12-31T11:59:51.683Z,7.03
2018-12-31T12:02:23.566Z,8.40
2018-12-31T12:04:52.685Z,9.10
2018-12-31T12:07:22.334Z,6.33
2018-12-31T12:09:52.036Z,5.63
2018-12-31T12:12:21.853Z,5.83
2018-12-31T12:14:51.518Z,6.83
2018-12-31T12:17:21.307Z,5.80
2018-12-31T12:19:50.958Z,5.97
2018-12-31T12:22:20.584Z,7.03
2018-12-31T12:24:50.426Z,6.10
2018-12-31T12:27:20.099Z,7.03
2018-12-31T12:29:49.816Z,5.70
2018-12-31T12:32:19.475Z,5.50
2018-12-31T12:34:49.108Z,6.20
2018-12-31T12:37:18.738Z,6.73
2018-12-31T12:39:48.410Z,7.30
2018-12-31T12:42:18.059Z,7.50
2018-12-31T12:44:47.765Z,7.27
2018-12-31T12:47:17.510Z,6.73
2018-12-31T12:49:47.188Z,6.93
2018-12-31T12:52:16.871Z,7.23
2018-12-31T12:54:46.656Z,7.70
2018-12-31T12:57:16.287Z,6.87
2018-12-31T12:59:46.336Z,6.87
2018-12-31T13:02:16.047Z,7.33
2018-12-31T13:04:45.684Z,6.73
2018-12-31T13:07:15.371Z,8.27
2018-12-31T13:09:45.163Z,7.30
2018-12-31T13:12:14.825Z,8.47
2018-12-31T13:14:44.484Z,10.70
2018-12-31T13:17:14.221Z,10.87
2018-12-31T13:19:43.878Z,11.27
2018-12-31T13:22:13.618Z,9.53
2018-12-31T13:24:43.296Z,6.07
2018-12-31T13:27:12.960Z,5.77
2018-12-31T13:29:42.661Z,8.80
2018-12-31T13:32:12.303Z,6.77
2018-12-31T13:34:42.370Z,5.90
2018-12-31T13:37:12.151Z,5.60
2018-12-31T13:39:41.831Z,6.17
2018-12-31T13:42:11.513Z,6.50
2018-12-31T13:44:41.183Z,6.70
2018-12-31T13:47:11.028Z,5.53
2018-12-31T13:49:40.758Z,6.17
2018-12-31T13:52:10.416Z,5.07
2018-12-31T13:54:40.045Z,3.97
2018-12-31T13:57:09.710Z,4.63
2018-12-31T13:59:39.397Z,3.83
2018-12-31T14:02:09.058Z,7.60
2018-12-31T14:04:38.788Z,6.53
2018-12-31T14:07:08.421Z,5.90
2018-12-31T14:09:38.045Z,7.57
2018-12-31T14:12:08.475Z,5.03
2018-12-31T14:14:38.234Z,7.77
2018-12-31T14:17:08.431Z,7.40
2018-12-31T14:19:38.099Z,8.17
2018-12-31T14:22:07.857Z,7.33
2018-12-31T14:24:37.530Z,5.47
2018-12-31T14:27:07.302Z,7.47
2018-12-31T14:29:37.034Z,7.77
2018-12-31T14:32:06.672Z,5.70
2018-12-31T14:34:36.342Z,8.63
2018-12-31T14:37:06.560Z,5.57
2018-12-31T14:39:38.486Z,5.37
2018-12-31T14:42:09.986Z,8.40
2018-12-31T14:44:39.795Z,7.57
2018-12-31T14:47:09.487Z,7.83
2018-12-31T14:49:39.153Z,7.20
2018-12-31T14:52:08.805Z,11.53
2018-12-31T14:54:38.692Z,8.83
2018-12-31T14:57:08.342Z,6.70
2018-12-31T14:59:41.054Z,8.83
2018-12-31T15:02:10.794Z,9.33
2018-12-31T15:04:40.913Z,6.17
2018-12-31T15:07:13.679Z,6.20
2018-12-31T15:09:43.424Z,6.27
2018-12-31T15:12:13.060Z,7.00
2018-12-31T15:14:42.814Z,8.17
2018-12-31T15:17:12.474Z,9.43
2018-12-31T15:19:42.119Z,7.13
2018-12-31T15:22:11.764Z,10.87
2018-12-31T15:24:41.533Z,10.10
2018-12-31T15:27:11.192Z,10.77
2018-12-31T15:29:40.864Z,5.77
2018-12-31T15:32:10.574Z,6.83
2018-12-31T15:34:40.276Z,5.63
2018-12-31T15:37:09.937Z,9.57
2018-12-31T15:39:39.578Z,5.53
2018-12-31T15:42:09.218Z,7.67
2018-12-31T15:44:38.940Z,3.77
2018-12-31T15:47:08.681Z,7.00
2018-12-31T15:49:38.313Z,7.10
2018-12-31T15:52:08.035Z,7.57
2018-12-31T15:54:38.069Z,6.67
2018-12-31T15:57:07.738Z,7.23
2018-12-31T15:59:37.503Z,7.70
2018-12-31T16:02:07.117Z,11.43
2018-12-31T16:04:36.827Z,7.73
2018-12-31T16:07:06.742Z,8.00
2018-12-31T16:09:36.386Z,18.30
2018-12-31T16:12:06.043Z,11.03
2018-12-31T16:14:35.714Z,7.57
2018-12-31T16:17:05.430Z,6.73
2018-12-31T16:19:35.064Z,6.93
2018-12-31T16:22:04.732Z,8.87
2018-12-31T16:24:34.422Z,10.40
2018-12-31T16:27:04.203Z,8.33
2018-12-31T16:29:34.093Z,10.50
2018-12-31T16:32:03.779Z,9.20
2018-12-31T16:34:33.451Z,8.10
2018-12-31T16:37:03.111Z,12.27
2018-12-31T16:39:32.742Z,13.37
2018-12-31T16:42:02.426Z,18.97
2018-12-31T16:44:32.083Z,15.30
2018-12-31T16:47:01.724Z,8.13
2018-12-31T16:49:31.401Z,16.57
2018-12-31T16:52:02.771Z,13.83
2018-12-31T16:54:32.519Z,11.33
2018-12-31T16:57:02.159Z,8.10
2018-12-31T16:59:31.836Z,15.30
2018-12-31T17:02:01.483Z,13.10
2018-12-31T17:04:31.567Z,14.43
2018-12-31T17:07:01.438Z,11.67
2018-12-31T17:09:31.207Z,11.87
2018-12-31T17:12:00.830Z,8.97
2018-12-31T17:14:30.501Z,8.40
2018-12-31T17:17:00.236Z,7.03
2018-12-31T17:19:30.283Z,10.03
2018-12-31T17:22:02.795Z,7.27
2018-12-31T17:24:32.460Z,12.20
2018-12-31T17:27:02.127Z,11.83
2018-12-31T17:29:31.783Z,77.53
2018-12-31T17:32:01.455Z,17.00
2018-12-31T17:34:31.067Z,16.87
2018-12-31T17:37:00.723Z,19.70
2018-12-31T17:39:30.588Z,51.70
2018-12-31T17:42:00.211Z,27.03
2018-12-31T17:44:29.856Z,13.10
2018-12-31T17:46:59.555Z,14.53
2018-12-31T17:49:29.226Z,16.63
2018-12-31T17:51:58.946Z,8.23
2018-12-31T17:54:28.578Z,11.50
2018-12-31T17:56:58.237Z,8.90
2018-12-31T17:59:27.892Z,11.73
2018-12-31T18:01:57.557Z,11.77
2018-12-31T18:04:27.228Z,14.37
2018-12-31T18:06:57.335Z,12.43
2018-12-31T18:09:27.052Z,12.50
2018-12-31T18:11:56.686Z,15.63
2018-12-31T18:14:26.323Z,13.37
2018-12-31T18:16:55.972Z,9.60
2018-12-31T18:19:25.695Z,16.27
2018-12-31T18:21:55.369Z,12.63
2018-12-31T18:24:24.998Z,13.60
2018-12-31T18:26:54.625Z,13.53
2018-12-31T18:29:24.353Z,15.97
2018-12-31T18:31:53.981Z,13.33
2018-12-31T18:34:23.633Z,18.20
2018-12-31T18:36:53.294Z,12.63
2018-12-31T18:39:22.954Z,14.90
2018-12-31T18:41:52.630Z,37.30
2018-12-31T18:44:22.292Z,16.53
2018-12-31T18:46:51.974Z,11.90
2018-12-31T18:49:21.638Z,12.33
2018-12-31T18:51:51.296Z,14.93
2018-12-31T18:54:20.961Z,40.77
2018-12-31T18:56:50.677Z,67.80
2018-12-31T18:59:20.323Z,19.17
2018-12-31T19:01:50.006Z,16.77
2018-12-31T19:04:19.649Z,18.97
2018-12-31T19:06:49.407Z,14.27
2018-12-31T19:09:19.146Z,9.37
2018-12-31T19:11:48.827Z,10.13
2018-12-31T19:14:18.464Z,13.93
2018-12-31T19:16:48.192Z,12.93
2018-12-31T19:19:18.230Z,16.57
2018-12-31T19:21:48.015Z,10.23
2018-12-31T19:24:17.701Z,7.70
2018-12-31T19:26:47.806Z,9.20
2018-12-31T19:29:17.661Z,5.87
2018-12-31T19:31:47.832Z,8.33
2018-12-31T19:34:17.496Z,17.23
2018-12-31T19:36:47.308Z,13.10
2018-12-31T19:39:17.231Z,6.53
2018-12-31T19:41:46.932Z,5.27
2018-12-31T19:44:16.864Z,7.73
2018-12-31T19:46:46.686Z,12.67
2018-12-31T19:49:16.575Z,10.80
2018-12-31T19:51:46.376Z,21.13
2018-12-31T19:54:16.283Z,8.80
2018-12-31T19:56:46.029Z,7.27
2018-12-31T19:59:15.746Z,7.90
2018-12-31T20:01:45.693Z,7.00
2018-12-31T20:04:15.326Z,6.97
2018-12-31T20:06:45.099Z,8.97
2018-12-31T20:09:14.848Z,9.60
2018-12-31T20:11:44.687Z,11.77
2018-12-31T20:14:14.398Z,35.27
2018-12-31T20:16:44.029Z,14.40
2018-12-31T20:19:13.851Z,30.30
2018-12-31T20:21:43.579Z,17.70
2018-12-31T20:24:13.423Z,12.97
2018-12-31T20:26:43.121Z,13.90
2018-12-31T20:29:12.814Z,19.50
2018-12-31T20:31:42.579Z,13.37
2018-12-31T20:34:12.383Z,10.97
2018-12-31T20:36:42.173Z,10.17
2018-12-31T20:39:11.856Z,11.20
2018-12-31T20:41:41.506Z,11.90
2018-12-31T20:44:11.428Z,19.37
2018-12-31T20:46:41.739Z,8.03
2018-12-31T20:49:11.513Z,7.53
2018-12-31T20:51:41.213Z,14.33
2018-12-31T20:54:11.265Z,11.57
2018-12-31T20:56:40.984Z,7.47
2018-12-31T20:59:11.178Z,16.80
2018-12-31T21:01:41.126Z,8.83
2018-12-31T21:04:10.983Z,21.73
2018-12-31T21:06:40.732Z,45.43
2018-12-31T21:09:10.534Z,16.03
2018-12-31T21:11:40.480Z,31.80
2018-12-31T21:14:10.177Z,24.97
2018-12-31T21:16:39.808Z,16.27
2018-12-31T21:19:09.472Z,9.67
2018-12-31T21:21:39.142Z,28.67
2018-12-31T21:24:09.051Z,8.97
2018-12-31T21:26:38.723Z,25.13
2018-12-31T21:29:08.440Z,11.47
2018-12-31T21:31:38.149Z,13.57
2018-12-31T21:34:08.046Z,15.67
2018-12-31T21:36:37.855Z,11.73
2018-12-31T21:39:08.205Z,17.63
2018-12-31T21:41:37.951Z,15.03
2018-12-31T21:44:07.893Z,10.13
2018-12-31T21:46:37.521Z,8.63
2018-12-31T21:49:07.374Z,16.97
2018-12-31T21:51:39.914Z,10.37
2018-12-31T21:54:09.581Z,11.23
2018-12-31T21:56:39.376Z,6.47
2018-12-31T21:59:09.240Z,7.97
2018-12-31T22:01:38.922Z,6.40
2018-12-31T22:04:08.686Z,8.13
2018-12-31T22:06:38.620Z,5.50
2018-12-31T22:09:08.792Z,4.47
2018-12-31T22:11:38.487Z,8.70
2018-12-31T22:14:08.286Z,7.50
2018-12-31T22:16:38.202Z,12.13
2018-12-31T22:19:07.928Z,5.67
2018-12-31T22:21:37.790Z,14.90
2018-12-31T22:24:07.542Z,6.27
2018-12-31T22:26:37.262Z,8.50
2018-12-31T22:29:07.034Z,4.53
2018-12-31T22:31:36.885Z,7.23
2018-12-31T22:34:06.529Z,13.67
2018-12-31T22:36:36.213Z,10.67
2018-12-31T22:39:06.949Z,5.20
2018-12-31T22:41:37.096Z,12.93
2018-12-31T22:44:06.866Z,30.07
2018-12-31T22:46:36.902Z,12.93
2018-12-31T22:49:07.005Z,6.90
2018-12-31T22:51:36.666Z,10.13
2018-12-31T22:54:06.402Z,6.17
2018-12-31T22:56:36.310Z,9.37
2018-12-31T22:59:05.989Z,6.93
2018-12-31T23:01:35.705Z,16.80
2018-12-31T23:04:05.362Z,22.43
2018-12-31T23:06:35.349Z,66.07
2018-12-31T23:09:09.049Z,106.50
2018-12-31T23:11:39.158Z,84.73
2018-12-31T23:14:08.891Z,152.03
2018-12-31T23:16:38.973Z,71.83
2018-12-31T23:19:08.692Z,69.83
2018-12-31T23:21:51.032Z,84.13
2018-12-31T23:24:20.711Z,31.50
2018-12-31T23:26:59.865Z,34.07
2018-12-31T23:29:34.221Z,67.63
2018-12-31T23:32:06.941Z,35.63
2018-12-31T23:34:36.611Z,37.07
2018-12-31T23:37:06.269Z,51.23
2018-12-31T23:39:35.897Z,27.53
2018-12-31T23:42:05.661Z,25.00
2018-12-31T23:44:35.296Z,17.37
2018-12-31T23:47:04.926Z,65.13
2018-12-31T23:49:34.591Z,155.80
2018-12-31T23:52:04.505Z,46.33
2018-12-31T23:54:35.063Z,29.27
2018-12-31T23:57:05.085Z,37.93
2018-12-31T23:59:35.194Z,16.07
